Time;durP1;ratioP1;P1;durP2;ratioP2;P2;SDS_P1;SDS_P2;PMS_P1;PMS_P2;Temp;Humidity;BMP_temperature;BMP_pressure;BME280_temperature;BME280_humidity;BME280_pressure;Samples;Min_cycle;Max_cycle;Signal;HPM_P1;HPM_P2
2023/06/21 00:00:30;;;;;;;10.07;5.57;;;;;;;;;;5025468;28;46490;-78
2023/06/21 00:02:57;;;;;;;16.23;5.20;;;22.00;23.80;;;;;;5028697;28;46416;-77
2023/06/21 00:05:22;;;;;;;20.20;6.20;;;21.90;24.80;;;;;;5028431;28;48441;-77
2023/06/21 00:07:49;;;;;;;12.80;6.60;;;21.90;24.90;;;;;;5029314;28;46469;-77
2023/06/21 00:10:14;;;;;;;13.10;6.47;;;21.90;24.40;;;;;;5032488;28;46795;-77
2023/06/21 00:12:40;;;;;;;17.23;6.30;;;21.90;25.10;;;;;;5030978;28;46803;-76
2023/06/21 00:15:07;;;;;;;14.30;6.00;;;21.90;25.30;;;;;;5027119;28;47536;-79
2023/06/21 00:17:33;;;;;;;15.23;6.27;;;21.80;25.30;;;;;;5027353;28;46855;-77
2023/06/21 00:19:58;;;;;;;13.90;5.97;;;21.80;25.00;;;;;;5027621;28;46522;-78
2023/06/21 00:22:24;;;;;;;15.80;6.03;;;21.80;25.70;;;;;;5035892;28;46692;-80
2023/06/21 00:24:51;;;;;;;17.23;6.17;;;21.80;25.70;;;;;;5028441;28;48912;-78
2023/06/21 00:27:20;;;;;;;9.83;5.53;;;21.80;25.60;;;;;;5027580;28;46770;-77
2023/06/21 00:29:45;;;;;;;15.50;6.20;;;21.70;24.80;;;;;;5029517;28;46868;-77
2023/06/21 00:32:11;;;;;;;15.53;5.70;;;21.80;25.60;;;;;;5041964;28;46643;-77
2023/06/21 00:34:36;;;;;;;14.97;6.10;;;21.70;25.30;;;;;;5029058;28;46475;-76
2023/06/21 00:37:02;;;;;;;16.67;5.70;;;21.80;25.50;;;;;;5031452;28;46495;-76
2023/06/21 00:39:29;;;;;;;13.30;5.87;;;21.70;25.40;;;;;;5031745;28;46737;-76
2023/06/21 00:41:55;;;;;;;12.97;6.33;;;21.70;25.60;;;;;;5034846;28;46360;-76
2023/06/21 00:44:20;;;;;;;14.00;6.00;;;21.70;25.50;;;;;;5030341;28;47667;-76
2023/06/21 00:46:46;;;;;;;11.60;6.30;;;21.60;25.60;;;;;;5029608;28;46982;-77
2023/06/21 00:49:11;;;;;;;15.33;5.70;;;21.60;25.60;;;;;;5032467;28;46482;-77
2023/06/21 00:51:38;;;;;;;14.20;5.93;;;21.60;24.90;;;;;;5031227;28;46460;-76
2023/06/21 00:54:05;;;;;;;12.90;5.67;;;21.60;25.50;;;;;;5028718;28;46784;-77
2023/06/21 00:56:33;;;;;;;14.20;5.20;;;21.50;25.40;;;;;;5029606;28;46543;-77
2023/06/21 00:58:59;;;;;;;15.00;5.40;;;21.60;26.70;;;;;;5031789;28;46638;-77
2023/06/21 01:01:26;;;;;;;13.67;6.50;;;21.30;25.40;;;;;;5031852;28;46822;-78
2023/06/21 01:03:53;;;;;;;11.33;6.47;;;21.20;27.10;;;;;;5027642;28;46459;-76
2023/06/21 01:06:37;;;;;;;17.77;6.40;;;20.90;26.80;;;;;;5026491;28;46329;-78
2023/06/21 01:09:33;;;;;;;17.87;5.93;;;20.70;27.80;;;;;;5029451;28;46439;-78
2023/06/21 01:12:15;;;;;;;14.20;6.57;;;20.60;27.70;;;;;;5027089;28;46489;-77
2023/06/21 01:15:02;;;;;;;13.90;5.80;;;20.60;28.30;;;;;;5034266;28;47184;-77
2023/06/21 01:17:31;;;;;;;15.67;5.83;;;20.60;28.60;;;;;;5032797;28;46900;-79
2023/06/21 01:19:57;;;;;;;18.43;6.93;;;20.70;27.40;;;;;;5032323;28;46454;-78
2023/06/21 01:22:32;;;;;;;19.57;6.07;;;20.70;28.20;;;;;;5029631;28;46420;-77
2023/06/21 01:25:39;;;;;;;19.03;6.20;;;20.70;28.40;;;;;;5044249;28;48182;-76
2023/06/21 01:28:42;;;;;;;10.33;5.43;;;20.70;28.70;;;;;;5031425;28;46500;-78
2023/06/21 01:31:09;;;;;;;15.33;5.53;;;20.80;27.40;;;;;;5032056;28;46550;-78
2023/06/21 01:33:36;;;;;;;18.40;7.07;;;20.80;27.90;;;;;;5043429;28;46471;-78
2023/06/21 01:36:04;;;;;;;15.10;5.70;;;20.80;27.90;;;;;;5030892;28;46356;-78
2023/06/21 01:38:29;;;;;;;15.97;5.93;;;20.70;29.10;;;;;;5032555;28;46431;-77
2023/06/21 01:40:56;;;;;;;21.80;5.70;;;20.60;27.70;;;;;;5032071;28;46649;-77
2023/06/21 01:43:22;;;;;;;13.83;5.63;;;20.60;29.50;;;;;;5025171;28;46022;-77
2023/06/21 01:45:50;;;;;;;10.50;5.60;;;20.50;28.60;;;;;;5028223;28;46818;-78
2023/06/21 01:48:16;;;;;;;13.33;5.87;;;20.60;28.90;;;;;;5028750;28;47310;-78
2023/06/21 01:50:44;;;;;;;12.23;5.80;;;20.30;28.30;;;;;;5033636;28;46553;-81
2023/06/21 01:53:10;;;;;;;11.93;6.67;;;20.40;29.10;;;;;;5045299;28;47170;-78
2023/06/21 01:55:36;;;;;;;15.40;6.50;;;20.30;29.00;;;;;;5028549;28;47384;-78
2023/06/21 01:58:04;;;;;;;15.67;6.90;;;20.40;29.30;;;;;;5029799;28;46471;-78
2023/06/21 02:00:29;;;;;;;16.23;6.53;;;20.10;28.80;;;;;;5029539;28;46578;-82
2023/06/21 02:02:57;;;;;;;23.67;6.73;;;20.10;28.70;;;;;;5029825;28;46759;-78
2023/06/21 02:05:23;;;;;;;13.10;6.57;;;20.00;29.70;;;;;;5031808;28;46478;-78
2023/06/21 02:07:49;;;;;;;15.93;6.57;;;20.00;29.90;;;;;;5026293;28;46859;-78
2023/06/21 02:10:18;;;;;;;21.17;7.80;;;19.90;29.30;;;;;;5032028;28;47660;-77
2023/06/21 02:12:47;;;;;;;12.17;6.70;;;19.90;30.10;;;;;;5026808;28;46772;-77
2023/06/21 02:15:14;;;;;;;17.47;7.00;;;19.80;30.20;;;;;;5027413;28;46668;-75
2023/06/21 02:17:40;;;;;;;18.73;6.80;;;19.80;30.40;;;;;;5028038;28;46895;-78
2023/06/21 02:20:12;;;;;;;17.90;7.00;;;19.70;29.90;;;;;;5046909;28;46458;-77
2023/06/21 02:22:41;;;;;;;14.77;6.47;;;19.70;30.80;;;;;;5029556;28;46417;-78
2023/06/21 02:25:08;;;;;;;17.23;7.40;;;19.60;30.80;;;;;;5029977;28;47253;-76
2023/06/21 02:27:34;;;;;;;17.73;7.47;;;19.50;30.90;;;;;;5033352;28;46529;-76
2023/06/21 02:29:59;;;;;;;14.40;7.40;;;19.50;31.10;;;;;;5029265;28;46618;-76
2023/06/21 02:32:25;;;;;;;14.30;6.77;;;19.50;31.40;;;;;;5028454;28;46667;-77
2023/06/21 02:34:50;;;;;;;26.37;7.57;;;19.40;31.50;;;;;;5025711;28;51442;-77
2023/06/21 02:37:16;;;;;;;13.13;7.07;;;19.40;31.70;;;;;;5031394;28;46576;-77
2023/06/21 02:39:42;;;;;;;19.90;7.17;;;19.30;30.80;;;;;;5031098;28;46478;-77
2023/06/21 02:42:07;;;;;;;14.17;6.57;;;19.30;31.90;;;;;;5028699;28;46527;-79
2023/06/21 02:44:33;;;;;;;13.67;7.23;;;19.30;31.90;;;;;;5029389;28;47921;-78
2023/06/21 02:46:59;;;;;;;18.40;7.47;;;;;;;;;;5028105;28;46544;-80
2023/06/21 02:49:25;;;;;;;14.50;5.80;;;19.30;31.20;;;;;;5031148;28;46997;-78
2023/06/21 02:51:52;;;;;;;14.63;6.70;;;19.20;31.70;;;;;;5025361;28;46371;-80
2023/06/21 02:54:18;;;;;;;17.73;6.60;;;19.00;33.20;;;;;;5030019;28;48303;-79
2023/06/21 02:56:44;;;;;;;17.60;7.20;;;18.90;34.30;;;;;;5033462;28;46567;-81
2023/06/21 02:59:10;;;;;;;22.27;7.43;;;18.80;32.90;;;;;;5027959;28;46567;-78
2023/06/21 03:01:36;;;;;;;14.27;6.50;;;18.70;32.50;;;;;;5029605;28;45926;-82
2023/06/21 03:04:01;;;;;;;16.90;6.50;;;18.60;33.00;;;;;;5035013;28;46439;-79
2023/06/21 03:06:29;;;;;;;12.97;7.10;;;18.70;33.30;;;;;;5033233;28;47085;-78
2023/06/21 03:08:57;;;;;;;12.90;6.13;;;18.60;33.10;;;;;;5031754;28;46897;-78
2023/06/21 03:11:23;;;;;;;14.23;7.37;;;18.60;33.30;;;;;;5029260;28;46782;-78
2023/06/21 03:13:49;;;;;;;14.90;7.00;;;18.70;33.40;;;;;;5032996;28;47281;-78
2023/06/21 03:16:15;;;;;;;18.13;7.50;;;18.60;33.40;;;;;;5029915;28;46792;-78
2023/06/21 03:18:40;;;;;;;21.10;8.53;;;18.60;33.50;;;;;;5032765;28;46510;-79
2023/06/21 03:21:06;;;;;;;24.03;7.50;;;18.60;33.10;;;;;;5028286;28;46993;-79
2023/06/21 03:23:31;;;;;;;13.07;7.50;;;18.60;33.80;;;;;;5031331;28;46735;-79
2023/06/21 03:25:57;;;;;;;14.37;7.67;;;18.60;33.80;;;;;;5028559;28;46786;-79
2023/06/21 03:28:23;;;;;;;15.33;6.87;;;18.70;34.00;;;;;;5026932;28;45902;-79
2023/06/21 03:30:48;;;;;;;14.90;6.53;;;18.60;33.20;;;;;;5027468;28;46665;-78
2023/06/21 03:33:14;;;;;;;12.40;6.60;;;18.60;34.00;;;;;;5027381;28;47176;-78
2023/06/21 03:35:39;;;;;;;19.27;6.80;;;18.60;34.00;;;;;;5031076;28;46885;-79
2023/06/21 03:38:07;;;;;;;21.20;6.23;;;18.70;34.10;;;;;;5031810;28;46497;-77
2023/06/21 03:40:33;;;;;;;18.50;6.80;;;18.80;33.10;;;;;;5031235;28;46803;-78
2023/06/21 03:42:58;;;;;;;17.13;7.40;;;18.80;33.70;;;;;;5026790;28;47222;-78
2023/06/21 03:45:24;;;;;;;15.97;7.23;;;18.80;33.50;;;;;;5030647;28;46435;-80
2023/06/21 03:47:49;;;;;;;16.60;7.10;;;18.90;33.50;;;;;;5032794;28;46386;-79
2023/06/21 03:50:15;;;;;;;13.90;7.17;;;18.90;32.60;;;;;;5026927;28;47071;-79
2023/06/21 03:52:41;;;;;;;16.77;7.30;;;19.00;33.30;;;;;;5032805;28;49280;-77
2023/06/21 03:55:07;;;;;;;14.40;6.70;;;19.00;33.10;;;;;;5024925;28;46723;-79
2023/06/21 03:57:33;;;;;;;17.17;7.57;;;19.10;33.20;;;;;;5025824;28;46660;-78
2023/06/21 03:59:59;;;;;;;22.33;7.00;;;19.40;32.40;;;;;;5027969;28;46472;-79
2023/06/21 04:02:25;;;;;;;15.97;6.80;;;19.50;33.60;;;;;;5027724;28;46697;-79
2023/06/21 04:04:51;;;;;;;9.70;5.80;;;19.60;33.00;;;;;;5031432;28;46214;-79
2023/06/21 04:07:19;;;;;;;24.10;6.93;;;19.70;32.40;;;;;;5026943;28;46706;-78
2023/06/21 04:09:45;;;;;;;15.07;6.63;;;20.00;30.70;;;;;;5036135;28;46727;-79
2023/06/21 04:12:11;;;;;;;13.60;7.17;;;20.00;31.70;;;;;;5042795;28;49194;-78
2023/06/21 04:14:37;;;;;;;20.40;7.17;;;20.00;31.70;;;;;;5037026;28;46574;-78
2023/06/21 04:17:03;;;;;;;13.37;6.20;;;20.00;32.00;;;;;;5032229;28;46577;-78
2023/06/21 04:19:28;;;;;;;18.90;6.70;;;20.00;32.00;;;;;;5037719;28;46470;-77
2023/06/21 04:21:54;;;;;;;17.23;7.30;;;20.20;30.70;;;;;;5038346;28;47021;-76
2023/06/21 04:24:19;;;;;;;19.07;6.93;;;20.40;31.50;;;;;;5036438;28;46614;-78
2023/06/21 04:26:45;;;;;;;19.37;7.13;;;20.60;31.20;;;;;;5037308;28;46789;-78
2023/06/21 04:29:10;;;;;;;16.93;7.10;;;20.70;30.60;;;;;;5033676;28;46673;-79
2023/06/21 04:31:37;;;;;;;17.03;6.10;;;20.90;29.30;;;;;;5037246;28;53849;-78
2023/06/21 04:34:04;;;;;;;16.60;6.20;;;21.30;30.00;;;;;;5030257;28;46645;-79
2023/06/21 04:36:29;;;;;;;19.90;6.47;;;21.30;29.20;;;;;;5035143;28;46061;-78
2023/06/21 04:38:55;;;;;;;27.83;7.67;;;21.60;28.60;;;;;;5040523;28;45929;-78
2023/06/21 04:41:21;;;;;;;22.47;6.70;;;21.90;28.10;;;;;;5037174;28;46451;-78
2023/06/21 04:43:47;;;;;;;12.73;6.30;;;22.10;27.50;;;;;;5033647;28;47009;-78
2023/06/21 04:46:13;;;;;;;17.63;6.77;;;23.10;25.50;;;;;;5036551;28;46779;-78
2023/06/21 04:48:39;;;;;;;26.77;7.33;;;23.20;26.10;;;;;;5036974;28;46391;-79
2023/06/21 04:51:05;;;;;;;17.37;6.57;;;24.00;25.30;;;;;;5036475;28;48247;-77
2023/06/21 04:53:30;;;;;;;15.83;6.70;;;24.60;23.80;;;;;;5039378;28;46883;-78
2023/06/21 04:55:59;;;;;;;16.70;6.33;;;25.50;21.80;;;;;;5039597;28;46465;-79
2023/06/21 04:58:25;;;;;;;16.03;5.97;;;26.10;20.20;;;;;;5033991;28;46323;-79
2023/06/21 05:00:51;;;;;;;13.77;6.63;;;26.60;19.30;;;;;;5034433;28;47522;-80
2023/06/21 05:03:16;;;;;;;18.00;6.00;;;26.80;18.50;;;;;;5036225;28;46568;-79
2023/06/21 05:05:42;;;;;;;16.63;6.73;;;27.10;17.70;;;;;;5039835;28;46589;-77
2023/06/21 05:08:08;;;;;;;16.13;6.20;;;27.30;17.00;;;;;;5034816;28;46495;-79
2023/06/21 05:10:34;;;;;;;20.70;6.63;;;27.60;15.40;;;;;;5041756;28;48258;-77
2023/06/21 05:12:59;;;;;;;20.87;6.67;;;27.90;15.80;;;;;;5033354;28;46666;-78
2023/06/21 05:15:27;;;;;;;24.90;6.77;;;28.60;14.20;;;;;;5036747;28;46550;-76
2023/06/21 05:17:52;;;;;;;13.53;6.13;;;29.20;12.90;;;;;;5033424;28;46870;-77
2023/06/21 05:20:20;;;;;;;17.37;6.40;;;29.90;10.20;;;;;;5031132;28;46414;-79
2023/06/21 05:22:46;;;;;;;19.27;6.50;;;30.00;10.50;;;;;;5033945;28;46729;-79
2023/06/21 05:25:11;;;;;;;14.63;6.10;;;30.40;9.50;;;;;;5032995;28;46885;-78
2023/06/21 05:27:37;;;;;;;17.20;6.27;;;30.70;8.80;;;;;;5030119;28;46743;-77
2023/06/21 05:30:03;;;;;;;18.50;5.50;;;31.20;7.40;;;;;;5030997;28;46364;-78
2023/06/21 05:32:29;;;;;;;25.30;5.93;;;31.60;7.00;;;;;;5030591;28;46510;-80
2023/06/21 05:34:54;;;;;;;19.50;5.80;;;32.00;5.80;;;;;;5026855;28;46518;-76
2023/06/21 05:37:22;;;;;;;16.37;5.90;;;32.10;4.90;;;;;;5029536;28;46344;-79
2023/06/21 05:39:47;;;;;;;13.13;5.67;;;32.20;3.20;;;;;;5033055;28;47243;-79
2023/06/21 05:42:13;;;;;;;18.23;5.93;;;32.10;3.80;;;;;;5030077;28;46285;-78
2023/06/21 05:44:39;;;;;;;18.73;6.17;;;31.70;4.60;;;;;;5031531;28;46079;-77
2023/06/21 05:47:05;;;;;;;20.30;6.40;;;32.00;4.00;;;;;;5030869;28;46557;-77
2023/06/21 05:49:30;;;;;;;15.97;6.27;;;32.40;3.40;;;;;;5035831;28;47109;-77
2023/06/21 05:51:56;;;;;;;14.00;6.30;;;32.00;3.90;;;;;;5030350;28;46553;-77
2023/06/21 05:54:21;;;;;;;12.83;6.30;;;31.80;3.80;;;;;;5033185;28;46532;-78
2023/06/21 05:56:48;;;;;;;13.93;6.57;;;30.80;5.60;;;;;;5029210;28;46249;-78
2023/06/21 05:59:14;;;;;;;15.87;5.60;;;30.00;6.80;;;;;;5029391;28;47612;-80
2023/06/21 06:01:40;;;;;;;17.10;6.30;;;29.40;7.50;;;;;;5034290;28;46526;-79
2023/06/21 06:04:05;;;;;;;15.43;7.10;;;29.20;9.30;;;;;;5027935;28;46474;-77
2023/06/21 06:06:38;;;;;;;19.00;6.20;;;29.00;9.60;;;;;;5030350;28;46677;-79
2023/06/21 06:09:08;;;;;;;24.97;6.23;;;29.00;9.40;;;;;;5028141;28;46705;-79
2023/06/21 06:11:34;;;;;;;16.43;7.00;;;28.60;9.10;;;;;;5032812;28;46592;-79
2023/06/21 06:13:59;;;;;;;13.10;6.67;;;28.40;10.10;;;;;;5031443;28;46546;-78
2023/06/21 06:16:25;;;;;;;15.93;5.73;;;28.30;10.40;;;;;;5029116;28;46668;-79
2023/06/21 06:18:50;;;;;;;15.50;6.10;;;28.10;11.70;;;;;;5030491;28;46659;-77
2023/06/21 06:21:21;;;;;;;14.10;7.03;;;27.90;10.00;;;;;;5027620;28;46626;-79
2023/06/21 06:23:50;;;;;;;21.80;7.27;;;27.60;11.30;;;;;;5029925;28;46544;-79
2023/06/21 06:26:20;;;;;;;30.57;7.73;;;27.50;11.60;;;;;;5034145;28;46600;-78
2023/06/21 06:28:45;;;;;;;13.70;6.87;;;27.40;11.60;;;;;;5033492;28;49736;-77
2023/06/21 06:31:11;;;;;;;13.43;6.53;;;26.80;11.90;;;;;;5028400;28;46606;-78
2023/06/21 06:33:36;;;;;;;19.20;6.90;;;26.60;13.10;;;;;;5030616;28;46723;-80
2023/06/21 06:36:02;;;;;;;18.97;7.47;;;26.90;12.80;;;;;;5028912;28;46569;-78
2023/06/21 06:38:28;;;;;;;24.90;6.90;;;27.10;12.60;;;;;;5031530;28;47817;-81
2023/06/21 06:40:53;;;;;;;25.17;8.43;;;26.90;13.20;;;;;;5032838;28;46769;-80
2023/06/21 06:43:19;;;;;;;23.70;7.47;;;26.50;13.80;;;;;;5032371;28;46554;-78
2023/06/21 06:45:44;;;;;;;18.23;7.57;;;26.70;13.60;;;;;;5035862;28;46543;-79
2023/06/21 06:48:10;;;;;;;21.30;7.83;;;26.60;13.80;;;;;;5028047;28;47125;-77
2023/06/21 06:50:38;;;;;;;18.37;7.60;;;26.60;13.90;;;;;;5027642;28;46697;-78
2023/06/21 06:53:05;;;;;;;19.63;8.00;;;26.60;14.00;;;;;;5026558;28;46575;-78
2023/06/21 06:55:31;;;;;;;23.20;9.03;;;26.50;14.30;;;;;;5030611;28;46481;-78
2023/06/21 06:57:58;;;;;;;17.87;7.17;;;26.50;14.30;;;;;;5024703;28;46723;-78
2023/06/21 07:00:23;;;;;;;18.33;8.03;;;26.80;12.70;;;;;;5022508;28;46749;-79
2023/06/21 07:02:49;;;;;;;17.53;8.33;;;26.90;13.60;;;;;;5026773;28;46424;-78
2023/06/21 07:05:15;;;;;;;21.90;8.40;;;26.80;13.90;;;;;;5022994;28;46360;-77
2023/06/21 07:07:40;;;;;;;18.80;7.50;;;26.80;14.00;;;;;;5025118;28;46542;-76
2023/06/21 07:10:06;;;;;;;17.27;7.47;;;26.70;14.20;;;;;;5025599;28;46447;-78
2023/06/21 07:12:32;;;;;;;17.13;7.73;;;26.60;14.50;;;;;;5015164;28;47013;-79
2023/06/21 07:14:58;;;;;;;13.40;7.43;;;26.80;14.30;;;;;;5027397;28;46824;-76
2023/06/21 07:17:25;;;;;;;22.63;7.70;;;26.80;14.00;;;;;;5025222;28;47414;-77
2023/06/21 07:19:51;;;;;;;22.93;8.77;;;26.70;13.70;;;;;;5023700;28;46572;-77
2023/06/21 07:22:17;;;;;;;18.10;7.90;;;26.70;14.60;;;;;;5021873;28;46498;-76
2023/06/21 07:24:42;;;;;;;19.87;7.60;;;26.60;14.50;;;;;;5027033;28;46583;-76
2023/06/21 07:27:08;;;;;;;18.37;7.73;;;26.80;14.50;;;;;;5022620;28;47302;-77
2023/06/21 07:29:33;;;;;;;11.60;6.50;;;26.80;15.00;;;;;;5027556;28;46643;-78
2023/06/21 07:31:59;;;;;;;18.20;6.97;;;27.00;12.80;;;;;;5023109;28;45915;-79
2023/06/21 07:34:25;;;;;;;16.83;7.50;;;27.20;13.20;;;;;;5025080;28;46876;-76
2023/06/21 07:36:51;;;;;;;17.10;7.70;;;27.50;12.80;;;;;;5032590;28;48466;-80
2023/06/21 07:39:17;;;;;;;20.87;9.00;;;27.50;12.80;;;;;;5028011;28;46570;-78
2023/06/21 07:41:42;;;;;;;11.37;7.30;;;27.70;11.50;;;;;;5027552;28;46447;-78
2023/06/21 07:44:08;;;;;;;15.40;6.83;;;27.60;12.50;;;;;;5028613;28;47331;-78
2023/06/21 07:46:33;;;;;;;17.57;7.63;;;27.80;12.20;;;;;;5029763;28;47286;-78
2023/06/21 07:48:59;;;;;;;18.87;7.23;;;28.00;11.70;;;;;;5028193;28;46564;-77
2023/06/21 07:51:24;;;;;;;18.00;7.03;;;28.10;10.50;;;;;;5028661;28;46011;-78
2023/06/21 07:53:50;;;;;;;12.47;7.40;;;28.30;11.10;;;;;;5027342;28;46926;-77
2023/06/21 07:56:16;;;;;;;18.27;7.30;;;28.40;10.30;;;;;;5026875;28;47131;-78
2023/06/21 07:58:42;;;;;;;11.10;6.17;;;28.70;10.20;;;;;;5026014;28;46669;-79
2023/06/21 08:01:09;;;;;;;13.30;6.70;;;28.50;9.60;;;;;;5026076;28;46859;-78
2023/06/21 08:03:34;;;;;;;14.20;6.17;;;28.50;10.40;;;;;;5044349;28;46917;-82
2023/06/21 08:06:00;;;;;;;22.87;7.77;;;28.40;11.20;;;;;;5029943;28;46525;-80
2023/06/21 08:08:26;;;;;;;15.73;7.00;;;28.50;10.10;;;;;;5029530;28;47000;-76
2023/06/21 08:10:52;;;;;;;22.27;6.57;;;28.80;8.60;;;;;;5030215;28;46475;-78
2023/06/21 08:13:22;;;;;;;16.67;6.57;;;28.90;9.50;;;;;;5032258;28;46466;-76
2023/06/21 08:15:48;;;;;;;12.27;6.50;;;29.00;9.30;;;;;;5025457;28;46650;-76
2023/06/21 08:18:14;;;;;;;17.23;7.47;;;29.10;9.20;;;;;;5042219;28;46372;-76
2023/06/21 08:20:40;;;;;;;11.40;6.73;;;29.20;8.90;;;;;;5026084;28;46775;-75
2023/06/21 08:23:06;;;;;;;20.80;7.33;;;28.90;9.40;;;;;;5028765;28;46510;-79
2023/06/21 08:25:32;;;;;;;23.27;7.17;;;29.00;9.50;;;;;;5029585;28;47097;-77
2023/06/21 08:27:58;;;;;;;11.87;6.27;;;28.80;9.70;;;;;;5031179;28;46404;-77
2023/06/21 08:30:23;;;;;;;15.70;7.40;;;28.70;8.60;;;;;;5027424;28;46637;-79
2023/06/21 08:32:50;;;;;;;26.40;8.17;;;28.60;9.50;;;;;;5024381;28;46949;-77
2023/06/21 08:35:16;;;;;;;17.57;8.10;;;28.30;10.00;;;;;;5023212;28;48199;-79
2023/06/21 08:37:56;;;;;;;16.77;8.20;;;28.40;10.00;;;;;;5018614;28;47429;-80
2023/06/21 08:40:27;;;;;;;15.60;7.33;;;28.10;9.80;;;;;;5017784;28;46508;-77
2023/06/21 08:42:53;;;;;;;14.87;7.70;;;28.10;10.70;;;;;;5023959;28;46499;-77
2023/06/21 08:45:19;;;;;;;23.23;8.03;;;28.60;10.00;;;;;;5018498;28;47173;-76
2023/06/21 08:47:46;;;;;;;20.30;7.77;;;29.00;9.40;;;;;;5022270;28;46485;-79
2023/06/21 08:50:16;;;;;;;18.37;7.57;;;29.10;8.00;;;;;;5020167;28;46625;-78
2023/06/21 08:52:44;;;;;;;19.53;7.07;;;29.10;9.10;;;;;;5019610;28;46778;-78
2023/06/21 08:55:11;;;;;;;16.63;7.60;;;29.30;8.60;;;;;;5025423;28;48233;-79
2023/06/21 08:57:44;;;;;;;16.73;7.87;;;29.20;8.20;;;;;;5043151;28;46961;-78
2023/06/21 09:00:12;;;;;;;11.00;6.47;;;29.20;6.80;;;;;;5025928;28;46780;-77
2023/06/21 09:02:53;;;;;;;15.33;7.00;;;29.20;7.40;;;;;;5028812;28;46531;-77
2023/06/21 09:05:27;;;;;;;12.07;7.40;;;29.20;6.90;;;;;;5023805;28;46743;-77
2023/06/21 09:07:53;;;;;;;12.77;6.43;;;28.90;7.50;;;;;;5015972;28;46851;-76
2023/06/21 09:10:21;;;;;;;20.40;8.20;;;29.30;5.80;;;;;;5020724;28;46514;-74
2023/06/21 09:12:51;;;;;;;14.53;7.77;;;29.40;6.70;;;;;;5023996;28;46675;-78
2023/06/21 09:15:17;;;;;;;18.50;7.70;;;29.60;6.60;;;;;;5023608;28;46494;-77
2023/06/21 09:17:45;;;;;;;13.40;6.90;;;29.60;6.70;;;;;;5021512;28;46495;-79
2023/06/21 09:20:11;;;;;;;14.90;7.07;;;29.60;6.10;;;;;;5025807;28;46529;-77
2023/06/21 09:22:38;;;;;;;14.80;7.33;;;29.60;6.70;;;;;;5022824;28;46551;-78
2023/06/21 09:25:04;;;;;;;15.37;6.63;;;29.90;6.10;;;;;;5019408;28;47486;-77
2023/06/21 09:27:30;;;;;;;17.90;7.20;;;30.20;5.60;;;;;;5023458;28;46748;-78
2023/06/21 09:29:55;;;;;;;14.50;7.20;;;30.10;4.20;;;;;;5021755;28;46738;-77
2023/06/21 09:32:22;;;;;;;10.93;7.00;;;30.00;5.00;;;;;;5021676;28;46150;-78
2023/06/21 09:34:48;;;;;;;20.23;7.40;;;29.60;5.90;;;;;;5026277;28;45986;-78
2023/06/21 09:37:33;;;;;;;13.00;7.00;;;29.00;6.00;;;;;;5025632;28;47031;-79
2023/06/21 09:39:59;;;;;;;18.70;6.63;;;28.60;6.40;;;;;;5022148;28;47223;-79
2023/06/21 09:42:28;;;;;;;11.40;5.83;;;28.60;6.40;;;;;;5022102;28;47425;-78
2023/06/21 09:44:53;;;;;;;18.83;6.57;;;28.50;7.60;;;;;;5019769;28;47180;-78
2023/06/21 09:47:19;;;;;;;11.93;6.03;;;28.20;7.30;;;;;;5020034;28;46577;-77
2023/06/21 09:49:49;;;;;;;15.87;6.50;;;27.90;8.30;;;;;;5019464;28;46766;-75
2023/06/21 09:52:17;;;;;;;21.80;7.30;;;27.80;10.10;;;;;;5021067;28;47005;-79
2023/06/21 09:54:47;;;;;;;39.90;6.97;;;27.50;9.90;;;;;;5027662;28;48972;-79
2023/06/21 09:57:12;;;;;;;41.27;6.43;;;27.20;9.70;;;;;;5022199;28;45846;-78
2023/06/21 09:59:40;;;;;;;29.67;6.40;;;25.30;12.20;;;;;;5020689;28;47051;-78
2023/06/21 10:02:07;;;;;;;37.77;7.60;;;23.30;17.20;;;;;;5022578;28;46852;-78
2023/06/21 10:04:44;;;;;;;27.63;6.03;;;21.30;25.60;;;;;;5028317;28;49628;-78
2023/06/21 10:07:14;;;;;;;23.07;5.27;;;20.60;28.20;;;;;;5022327;28;46507;-77
2023/06/21 10:09:39;;;;;;;33.63;6.23;;;20.40;29.10;;;;;;5022583;28;46503;-78
2023/06/21 10:12:06;;;;;;;31.00;6.73;;;20.30;29.20;;;;;;5021394;28;46447;-79
2023/06/21 10:14:32;;;;;;;32.03;5.40;;;20.30;29.00;;;;;;5018214;28;47367;-76
2023/06/21 10:16:58;;;;;;;24.50;5.50;;;20.40;28.40;;;;;;5020751;28;46465;-76
2023/06/21 10:19:26;;;;;;;36.57;5.20;;;20.70;27.40;;;;;;5022324;28;46551;-77
2023/06/21 10:22:17;;;;;;;24.80;5.90;;;20.80;26.60;;;;;;5027977;28;46546;-77
2023/06/21 10:24:52;;;;;;;26.90;5.60;;;20.60;27.90;;;;;;5033080;28;48184;-81
2023/06/21 10:27:19;;;;;;;20.40;5.80;;;20.70;26.40;;;;;;5035953;28;46736;-78
2023/06/21 10:29:51;;;;;;;23.93;5.30;;;20.70;26.30;;;;;;5033636;28;46526;-77
2023/06/21 10:32:16;;;;;;;27.27;5.37;;;20.80;27.30;;;;;;5023447;28;47523;-79
2023/06/21 10:34:55;;;;;;;31.77;8.23;;;20.80;27.30;;;;;;5035218;28;47177;-79
2023/06/21 10:37:20;;;;;;;22.37;6.30;;;20.80;27.60;;;;;;5033749;28;46856;-79
2023/06/21 10:39:52;;;;;;;35.97;5.93;;;20.80;26.70;;;;;;5033813;28;46475;-82
2023/06/21 10:42:19;;;;;;;36.00;6.10;;;20.80;27.70;;;;;;5035412;28;46518;-79
2023/06/21 10:44:45;;;;;;;29.27;6.80;;;21.20;26.90;;;;;;5030132;28;47248;-79
2023/06/21 10:47:12;;;;;;;29.23;5.90;;;21.20;27.70;;;;;;5031692;28;46458;-79
2023/06/21 10:49:38;;;;;;;28.93;5.77;;;21.20;27.30;;;;;;5028456;28;46498;-81
2023/06/21 10:52:06;;;;;;;16.60;4.13;;;21.50;26.30;;;;;;5031801;28;46586;-81
2023/06/21 10:54:32;;;;;;;32.10;4.80;;;21.70;26.70;;;;;;5027577;28;47610;-78
2023/06/21 10:56:58;;;;;;;26.10;4.80;;;21.90;26.20;;;;;;5029796;28;46844;-78
2023/06/21 10:59:26;;;;;;;21.67;4.77;;;22.30;25.70;;;;;;5032228;28;46610;-78
2023/06/21 11:01:52;;;;;;;19.97;6.17;;;22.10;24.60;;;;;;5031390;28;46601;-80
2023/06/21 11:04:18;;;;;;;25.33;5.67;;;22.30;25.50;;;;;;5026692;28;47256;-77
2023/06/21 11:06:44;;;;;;;28.00;5.63;;;22.40;23.40;;;;;;5032005;28;47256;-77
2023/06/21 11:09:16;;;;;;;25.37;4.93;;;22.50;24.40;;;;;;5027872;28;46825;-79
2023/06/21 11:11:50;;;;;;;25.40;5.77;;;23.10;23.00;;;;;;5035510;28;46849;-78
2023/06/21 11:14:20;;;;;;;15.00;3.90;;;23.50;22.60;;;;;;5029255;28;48153;-77
2023/06/21 11:16:46;;;;;;;15.90;4.00;;;23.80;21.60;;;;;;5038922;28;46494;-78
2023/06/21 11:19:14;;;;;;;20.10;5.20;;;24.20;20.60;;;;;;5024764;28;46011;-79
2023/06/21 11:21:44;;;;;;;21.47;4.80;;;24.60;18.70;;;;;;5029908;28;46490;-77
2023/06/21 11:24:15;;;;;;;25.80;5.13;;;24.80;18.80;;;;;;5038377;28;49023;-79
2023/06/21 11:27:05;;;;;;;15.30;4.20;;;25.00;18.40;;;;;;5031510;28;46994;-78
2023/06/21 11:29:36;;;;;;;31.73;5.77;;;25.50;17.90;;;;;;5029444;28;46383;-77
2023/06/21 11:32:11;;;;;;;19.73;5.00;;;25.70;16.00;;;;;;5024328;28;46530;-77
2023/06/21 11:34:56;;;;;;;25.90;5.73;;;25.80;17.20;;;;;;5026562;28;47141;-79
2023/06/21 11:37:41;;;;;;;20.63;4.50;;;26.60;15.70;;;;;;5026291;28;46585;-79
2023/06/21 11:40:26;;;;;;;11.23;4.27;;;27.40;13.70;;;;;;5029499;28;46505;-76
2023/06/21 11:42:52;;;;;;;12.23;4.00;;;27.40;14.30;;;;;;5031956;28;47623;-78
2023/06/21 11:45:35;;;;;;;16.40;4.43;;;27.60;13.90;;;;;;5028084;28;48145;-76
2023/06/21 11:48:04;;;;;;;20.43;4.50;;;27.60;13.70;;;;;;5028948;28;46463;-78
2023/06/21 11:50:50;;;;;;;17.43;4.37;;;27.60;13.70;;;;;;5027273;28;46673;-78
2023/06/21 11:53:24;;;;;;;19.43;4.53;;;27.90;13.00;;;;;;5029614;28;46429;-78
2023/06/21 11:55:57;;;;;;;20.63;4.73;;;27.90;13.00;;;;;;5025997;28;48567;-79
2023/06/21 11:58:24;;;;;;;16.03;4.53;;;27.70;13.70;;;;;;5025974;28;46417;-77
2023/06/21 12:00:51;;;;;;;15.93;5.00;;;27.90;12.40;;;;;;5024960;28;46469;-78
2023/06/21 12:03:18;;;;;;;17.57;4.67;;;27.90;13.00;;;;;;5029902;28;46470;-77
2023/06/21 12:05:49;;;;;;;18.87;4.63;;;28.10;12.80;;;;;;5032861;28;49170;-77
2023/06/21 12:08:18;;;;;;;18.50;4.80;;;28.60;11.70;;;;;;5032521;28;46778;-78
2023/06/21 12:10:45;;;;;;;19.63;4.43;;;28.60;10.30;;;;;;5035361;28;47426;-78
2023/06/21 12:13:15;;;;;;;21.07;4.57;;;28.60;11.20;;;;;;5025433;28;46718;-77
2023/06/21 12:15:55;;;;;;;23.83;5.20;;;28.60;11.00;;;;;;5033512;28;48796;-77
2023/06/21 12:18:23;;;;;;;19.67;4.37;;;28.50;11.00;;;;;;5026298;28;46586;-77
2023/06/21 12:20:50;;;;;;;15.33;4.63;;;28.20;10.80;;;;;;5033363;28;46477;-77
2023/06/21 12:23:15;;;;;;;16.33;4.40;;;28.20;10.90;;;;;;5030247;28;46906;-79
2023/06/21 12:25:46;;;;;;;22.50;4.83;;;28.40;10.40;;;;;;5026565;28;48058;-79
2023/06/21 12:28:13;;;;;;;20.47;5.20;;;28.50;9.70;;;;;;5029725;28;46677;-78
2023/06/21 12:31:04;;;;;;;14.33;3.90;;;28.70;8.60;;;;;;5031531;28;46821;-80
2023/06/21 12:33:36;;;;;;;17.63;4.27;;;28.80;9.10;;;;;;5029766;28;46385;-78
2023/06/21 12:36:21;;;;;;;22.67;5.23;;;29.20;8.60;;;;;;5032984;28;48008;-79
2023/06/21 12:38:48;;;;;;;18.57;4.00;;;29.40;7.80;;;;;;5029045;28;46478;-75
2023/06/21 12:41:19;;;;;;;22.53;4.50;;;29.50;7.90;;;;;;5027413;28;46633;-80
2023/06/21 12:43:47;;;;;;;22.67;4.70;;;29.40;7.50;;;;;;5033332;28;46093;-78